Elkins, West Virginia
Current Conditions -  °F | °C
As of 1:51 AM on Tuesday 21 Oct 2014 (Local Time) from KEKN Reporting Station
Broken Clouds Broken Clouds  
Wind Chill: 50°   Ceiling: 3400
Heat Index: 50°   Visibility: 10mi
Dew Point: 46°   Wind: 0mph
Humidity: 86%   Direction: NA
Pressure: 29.92"   Gusts: NA
Location:  38.92°N, 79.84°W
Report Text: KEKN 210551Z AUTO 00000KT 10SM SCT027 BKN034 BKN043 10/08 A2992 RMK AO2 SLP135 60001 T01000078 10106 20072 58010 TSNO
Loading
Personal Weather Stations






























Interactive Weather Map New forecast layout! Learn more

10-Day Weather Forecast

Advertisements
Track Severe Weather on mobile